createdAt,value
2018-08-06T00:00:52.216Z,3.57
2018-08-06T00:03:20.532Z,4.67
2018-08-06T00:05:48.793Z,3.87
2018-08-06T00:08:17.124Z,3.93
2018-08-06T00:10:45.448Z,3.50
2018-08-06T00:13:13.701Z,4.33
2018-08-06T00:15:42.103Z,4.17
2018-08-06T00:18:10.397Z,4.73
2018-08-06T00:20:38.656Z,4.53
2018-08-06T00:23:06.984Z,4.40
2018-08-06T00:25:35.254Z,4.70
2018-08-06T00:28:03.588Z,4.23
2018-08-06T00:30:31.840Z,4.23
2018-08-06T00:33:00.087Z,4.30
2018-08-06T00:35:28.368Z,4.40
2018-08-06T00:37:56.705Z,3.87
2018-08-06T00:40:24.973Z,4.00
2018-08-06T00:42:53.348Z,4.40
2018-08-06T00:45:21.940Z,4.47
2018-08-06T00:47:50.617Z,4.40
2018-08-06T00:50:18.901Z,4.70
2018-08-06T00:52:47.189Z,4.67
2018-08-06T00:55:17.083Z,4.33
2018-08-06T00:57:45.315Z,4.40
2018-08-06T01:00:16.298Z,4.90
2018-08-06T01:02:44.630Z,5.10
2018-08-06T01:05:14.000Z,4.17
2018-08-06T01:07:42.958Z,4.20
2018-08-06T01:10:15.281Z,4.93
2018-08-06T01:12:43.567Z,4.77
2018-08-06T01:15:14.460Z,5.03
2018-08-06T01:17:42.809Z,5.03
2018-08-06T01:20:12.321Z,4.60
2018-08-06T01:22:41.537Z,4.50
2018-08-06T01:25:09.813Z,4.60
2018-08-06T01:27:38.162Z,4.70
2018-08-06T01:30:08.132Z,4.60
2018-08-06T01:32:36.999Z,4.37
2018-08-06T01:35:06.095Z,4.37
2018-08-06T01:37:34.372Z,5.10
2018-08-06T01:40:02.635Z,4.63
2018-08-06T01:42:30.948Z,4.37
2018-08-06T01:44:59.224Z,4.70
2018-08-06T01:47:27.472Z,5.00
2018-08-06T01:49:55.761Z,4.77
2018-08-06T01:52:24.061Z,4.67
2018-08-06T01:54:52.423Z,4.90
2018-08-06T01:57:20.758Z,5.47
2018-08-06T01:59:49.052Z,5.33
2018-08-06T02:02:17.401Z,4.53
2018-08-06T02:04:45.520Z,5.90
2018-08-06T02:07:13.804Z,5.20
2018-08-06T02:09:42.131Z,5.43
2018-08-06T02:12:10.408Z,5.57
2018-08-06T02:14:38.699Z,5.17
2018-08-06T02:17:07.060Z,5.30
2018-08-06T02:19:35.332Z,5.40
2018-08-06T02:22:03.664Z,4.67
2018-08-06T02:24:32.221Z,5.30
2018-08-06T02:27:00.494Z,5.30
2018-08-06T02:29:28.805Z,5.50
2018-08-06T02:31:57.109Z,5.30
2018-08-06T02:34:25.372Z,5.60
2018-08-06T02:36:53.710Z,5.33
2018-08-06T02:39:21.978Z,5.13
2018-08-06T02:41:50.299Z,5.27
2018-08-06T02:44:18.634Z,5.40
2018-08-06T02:46:46.933Z,5.40
2018-08-06T02:49:15.221Z,6.20
2018-08-06T02:51:43.550Z,5.20
2018-08-06T02:54:11.804Z,5.20
2018-08-06T02:56:40.080Z,5.23
2018-08-06T02:59:08.356Z,5.50
2018-08-06T03:01:36.676Z,4.87
2018-08-06T03:04:05.069Z,4.93
2018-08-06T03:06:33.361Z,5.63
2018-08-06T03:09:01.655Z,5.27
2018-08-06T03:11:29.914Z,5.30
2018-08-06T03:13:58.165Z,5.87
2018-08-06T03:16:26.452Z,5.37
2018-08-06T03:18:54.717Z,5.10
2018-08-06T03:21:23.016Z,5.40
2018-08-06T03:23:51.329Z,5.50
2018-08-06T03:26:19.593Z,5.80
2018-08-06T03:28:47.659Z,5.57
2018-08-06T03:31:16.296Z,5.13
2018-08-06T03:33:44.608Z,5.23
2018-08-06T03:36:13.089Z,5.30
2018-08-06T03:38:41.365Z,5.10
2018-08-06T03:41:09.673Z,5.47
2018-08-06T03:43:37.701Z,5.23
2018-08-06T03:46:06.159Z,5.47
2018-08-06T03:48:34.469Z,5.63
2018-08-06T03:51:02.753Z,5.37
2018-08-06T03:53:31.055Z,5.47
2018-08-06T03:55:59.334Z,5.03
2018-08-06T03:58:27.367Z,6.17
2018-08-06T04:00:55.637Z,5.53
2018-08-06T04:03:24.063Z,5.60
2018-08-06T04:05:52.394Z,5.83
2018-08-06T04:08:20.739Z,5.80
2018-08-06T04:10:49.048Z,7.00
2018-08-06T04:13:17.344Z,5.90
2018-08-06T04:15:45.607Z,6.67
2018-08-06T04:18:13.857Z,6.10
2018-08-06T04:20:42.157Z,6.30
2018-08-06T04:23:10.464Z,6.47
2018-08-06T04:25:38.728Z,6.17
2018-08-06T04:28:07.030Z,6.70
2018-08-06T04:30:35.307Z,5.57
2018-08-06T04:33:03.663Z,6.60
2018-08-06T04:35:31.929Z,6.13
2018-08-06T04:38:00.193Z,5.60
2018-08-06T04:40:28.481Z,6.17
2018-08-06T04:42:56.756Z,6.53
2018-08-06T04:45:25.105Z,6.97
2018-08-06T04:47:53.485Z,5.90
2018-08-06T04:50:21.768Z,6.57
2018-08-06T04:52:50.045Z,7.80
2018-08-06T04:55:18.413Z,8.33
2018-08-06T04:57:46.728Z,9.90
2018-08-06T05:00:15.656Z,8.37
2018-08-06T05:02:44.524Z,8.53
2018-08-06T05:05:12.818Z,8.97
2018-08-06T05:07:41.182Z,9.10
2018-08-06T05:10:09.479Z,9.93
2018-08-06T05:12:37.757Z,10.50
2018-08-06T05:15:06.118Z,10.40
2018-08-06T05:17:34.382Z,9.87
2018-08-06T05:20:02.719Z,12.23
2018-08-06T05:22:31.110Z,11.17
2018-08-06T05:24:59.373Z,10.80
2018-08-06T05:27:27.766Z,11.20
2018-08-06T05:29:56.129Z,11.13
2018-08-06T05:32:24.449Z,9.97
2018-08-06T05:34:53.001Z,10.60
2018-08-06T05:37:21.337Z,10.80
2018-08-06T05:39:50.081Z,10.27
2018-08-06T05:42:18.380Z,9.87
2018-08-06T05:44:47.877Z,10.17
2018-08-06T05:47:16.185Z,10.47
2018-08-06T05:49:44.522Z,9.20
2018-08-06T05:52:12.800Z,9.80
2018-08-06T05:54:41.103Z,8.93
2018-08-06T05:57:09.439Z,8.93
2018-08-06T05:59:37.805Z,7.87
2018-08-06T06:02:06.129Z,7.13
2018-08-06T06:04:34.509Z,6.50
2018-08-06T06:07:02.832Z,6.20
2018-08-06T06:09:31.165Z,6.87
2018-08-06T06:11:59.448Z,6.37
2018-08-06T06:14:27.780Z,6.50
2018-08-06T06:17:02.520Z,6.03
2018-08-06T06:19:30.808Z,6.70
2018-08-06T06:21:58.899Z,5.40
2018-08-06T06:24:27.940Z,5.67
2018-08-06T06:26:56.197Z,5.57
2018-08-06T06:29:24.512Z,5.60
2018-08-06T06:31:52.793Z,4.90
2018-08-06T06:34:21.110Z,4.73
2018-08-06T06:36:49.414Z,3.90
2018-08-06T06:39:17.703Z,3.90
2018-08-06T06:41:46.036Z,3.70
2018-08-06T06:44:14.256Z,3.90
2018-08-06T06:46:42.501Z,3.60
2018-08-06T06:49:11.084Z,3.20
2018-08-06T06:51:39.389Z,3.40
2018-08-06T06:54:07.920Z,3.13
2018-08-06T06:56:36.223Z,3.60
2018-08-06T06:59:04.552Z,3.30
2018-08-06T07:01:32.913Z,3.47
2018-08-06T07:04:01.238Z,3.20
2018-08-06T07:06:29.563Z,3.80
2018-08-06T07:08:57.840Z,3.37
2018-08-06T07:11:26.204Z,3.00
2018-08-06T07:13:54.548Z,3.03
2018-08-06T07:16:22.813Z,3.13
2018-08-06T07:18:51.125Z,3.77
2018-08-06T07:21:19.397Z,2.90
2018-08-06T07:23:47.724Z,3.20
2018-08-06T07:26:15.986Z,3.63
2018-08-06T07:28:44.360Z,3.20
2018-08-06T07:31:12.698Z,3.27
2018-08-06T07:33:41.108Z,3.40
2018-08-06T07:36:09.492Z,3.43
2018-08-06T07:38:37.871Z,3.70
2018-08-06T07:41:06.138Z,3.10
2018-08-06T07:43:34.449Z,3.40
2018-08-06T07:46:02.817Z,2.90
2018-08-06T07:48:31.209Z,2.77
2018-08-06T07:50:59.576Z,3.30
2018-08-06T07:53:27.924Z,3.50
2018-08-06T07:55:56.290Z,2.87
2018-08-06T07:58:24.658Z,3.30
2018-08-06T08:00:53.058Z,3.27
2018-08-06T08:03:21.431Z,2.80
2018-08-06T08:05:49.748Z,2.87
2018-08-06T08:08:18.048Z,2.80
2018-08-06T08:10:46.501Z,3.10
2018-08-06T08:13:14.844Z,2.90
2018-08-06T08:15:43.150Z,2.97
2018-08-06T08:18:11.506Z,2.90
2018-08-06T08:20:39.830Z,2.90
2018-08-06T08:23:08.114Z,3.10
2018-08-06T08:25:36.426Z,3.87
2018-08-06T08:28:04.801Z,3.27
2018-08-06T08:30:33.178Z,2.67
2018-08-06T08:33:01.464Z,3.10
2018-08-06T08:35:31.125Z,3.80
2018-08-06T08:37:59.493Z,3.30
2018-08-06T08:40:27.972Z,3.17
2018-08-06T08:42:56.346Z,3.43
2018-08-06T08:45:24.698Z,3.20
2018-08-06T08:47:53.143Z,3.30
2018-08-06T08:50:21.470Z,3.47
2018-08-06T08:52:50.024Z,3.63
2018-08-06T08:55:19.269Z,3.40
2018-08-06T08:57:47.562Z,3.03
2018-08-06T09:00:16.951Z,2.90
2018-08-06T09:02:46.640Z,3.75
2018-08-06T09:05:15.543Z,2.75
2018-08-06T09:07:43.941Z,3.50
2018-08-06T09:10:13.708Z,3.02
2018-08-06T09:12:42.486Z,3.27
2018-08-06T09:15:17.354Z,3.08
2018-08-06T09:17:45.630Z,2.98
2018-08-06T09:20:13.945Z,4.03
2018-08-06T09:22:42.916Z,3.30
2018-08-06T09:25:12.028Z,3.45
2018-08-06T09:27:41.788Z,3.20
2018-08-06T09:30:13.294Z,3.10
2018-08-06T09:32:42.864Z,3.20
2018-08-06T09:35:11.320Z,3.95
2018-08-06T09:37:40.247Z,3.52
2018-08-06T09:40:11.044Z,3.40
2018-08-06T09:42:39.840Z,3.17
2018-08-06T09:45:09.997Z,3.45
2018-08-06T09:47:38.373Z,3.50
2018-08-06T09:50:08.278Z,3.25
2018-08-06T09:52:36.792Z,2.85
2018-08-06T09:55:06.701Z,3.10
2018-08-06T09:57:35.032Z,3.90
2018-08-06T10:00:03.985Z,3.58
2018-08-06T10:02:32.454Z,2.75
2018-08-06T10:05:00.754Z,2.72
2018-08-06T10:07:29.157Z,3.02
2018-08-06T10:09:57.461Z,3.87
2018-08-06T10:12:25.710Z,2.98
2018-08-06T10:14:54.207Z,3.00
2018-08-06T10:17:22.545Z,2.70
2018-08-06T10:19:50.825Z,2.65
2018-08-06T10:22:19.106Z,2.83
2018-08-06T10:24:47.480Z,2.40
2018-08-06T10:27:16.014Z,2.90
2018-08-06T10:29:44.254Z,2.80
2018-08-06T10:32:12.598Z,3.20
2018-08-06T10:34:40.860Z,2.87
2018-08-06T10:37:09.217Z,3.10
2018-08-06T10:39:37.446Z,8.13
2018-08-06T10:42:05.837Z,3.50
2018-08-06T10:44:34.181Z,2.95
2018-08-06T10:47:02.488Z,2.60
2018-08-06T10:49:30.766Z,2.95
2018-08-06T10:51:58.780Z,2.80
2018-08-06T10:54:27.093Z,2.70
2018-08-06T10:57:01.833Z,2.85
2018-08-06T10:59:30.384Z,2.85
2018-08-06T11:01:58.800Z,3.30
2018-08-06T11:04:27.411Z,4.83
2018-08-06T11:06:55.831Z,4.70
2018-08-06T11:09:24.124Z,3.62
2018-08-06T11:11:52.581Z,2.85
2018-08-06T11:14:21.129Z,2.72
2018-08-06T11:16:49.378Z,2.70
2018-08-06T11:19:17.737Z,2.42
2018-08-06T11:21:46.017Z,3.20
2018-08-06T11:24:14.466Z,3.25
2018-08-06T11:26:42.964Z,2.95
2018-08-06T11:29:11.438Z,2.67
2018-08-06T11:31:39.704Z,3.35
2018-08-06T11:34:08.118Z,2.45
2018-08-06T11:36:36.511Z,2.83
2018-08-06T11:39:07.228Z,3.30
2018-08-06T11:41:35.574Z,2.70
2018-08-06T11:44:03.902Z,3.35
2018-08-06T11:46:32.181Z,2.67
2018-08-06T11:49:00.266Z,2.72
2018-08-06T11:51:28.517Z,2.87
2018-08-06T11:53:56.865Z,2.90
2018-08-06T11:56:25.436Z,2.90
2018-08-06T11:58:53.737Z,3.33
2018-08-06T12:01:22.144Z,2.58
2018-08-06T12:03:50.408Z,3.17
2018-08-06T12:06:18.680Z,3.27
2018-08-06T12:08:48.884Z,2.90
2018-08-06T12:11:17.249Z,3.17
2018-08-06T12:13:45.643Z,2.65
2018-08-06T12:16:13.904Z,2.55
2018-08-06T12:18:42.203Z,2.50
2018-08-06T12:21:10.667Z,2.30
2018-08-06T12:23:38.990Z,2.67
2018-08-06T12:26:07.469Z,2.77
2018-08-06T12:28:35.701Z,2.50
2018-08-06T12:31:03.984Z,2.42
2018-08-06T12:33:32.286Z,2.20
2018-08-06T12:36:00.629Z,2.40
2018-08-06T12:39:37.452Z,2.67
2018-08-06T12:42:05.845Z,2.47
2018-08-06T12:44:34.127Z,2.70
2018-08-06T12:47:02.534Z,2.55
2018-08-06T12:49:30.853Z,2.62
2018-08-06T12:51:59.183Z,2.40
2018-08-06T12:54:27.488Z,3.10
2018-08-06T12:56:55.798Z,2.80
2018-08-06T12:59:24.153Z,2.50
2018-08-06T13:01:52.476Z,1.87
2018-08-06T13:04:20.729Z,2.77
2018-08-06T13:06:50.418Z,2.55
2018-08-06T13:09:18.520Z,3.58
2018-08-06T13:11:46.811Z,2.40
2018-08-06T13:14:15.682Z,2.40
2018-08-06T13:16:44.729Z,3.80
2018-08-06T13:19:12.961Z,2.85
2018-08-06T13:21:41.227Z,2.35
2018-08-06T13:24:09.775Z,2.12
2018-08-06T13:26:38.098Z,2.17
2018-08-06T13:29:06.853Z,2.45
2018-08-06T13:31:35.209Z,3.08
2018-08-06T13:34:03.441Z,2.12
2018-08-06T13:36:31.735Z,2.50
2018-08-06T13:38:59.995Z,2.30
2018-08-06T13:41:28.320Z,2.30
2018-08-06T13:43:56.605Z,2.87
2018-08-06T13:46:24.977Z,2.10
2018-08-06T13:48:54.021Z,2.80
2018-08-06T13:51:22.325Z,2.22
2018-08-06T13:53:50.626Z,1.90
2018-08-06T13:56:18.901Z,2.35
2018-08-06T13:58:47.188Z,2.00
2018-08-06T14:01:15.605Z,2.33
2018-08-06T14:03:43.793Z,2.05
2018-08-06T14:06:12.129Z,2.33
2018-08-06T14:08:40.393Z,2.47
2018-08-06T14:11:08.883Z,2.27
2018-08-06T14:13:37.562Z,1.95
2018-08-06T14:16:05.904Z,2.98
2018-08-06T14:18:34.198Z,3.67
2018-08-06T14:21:02.437Z,2.30
2018-08-06T14:23:30.804Z,2.12
2018-08-06T14:25:59.202Z,2.20
2018-08-06T14:28:27.420Z,2.20
2018-08-06T14:30:55.664Z,1.98
2018-08-06T14:33:24.072Z,1.87
2018-08-06T14:35:52.504Z,2.30
2018-08-06T14:38:20.869Z,2.20
2018-08-06T14:40:49.229Z,2.20
2018-08-06T14:43:17.478Z,2.87
2018-08-06T14:45:46.076Z,1.82
2018-08-06T14:48:14.369Z,1.80
2018-08-06T14:50:42.807Z,1.90
2018-08-06T14:53:11.221Z,3.10
2018-08-06T14:55:39.625Z,2.00
2018-08-06T14:58:08.141Z,2.30
2018-08-06T15:00:36.455Z,2.27
2018-08-06T15:03:04.985Z,2.25
2018-08-06T15:05:33.127Z,2.35
2018-08-06T15:08:01.880Z,1.98
2018-08-06T15:10:30.142Z,1.80
2018-08-06T15:12:58.433Z,2.12
2018-08-06T15:15:26.815Z,2.05
2018-08-06T15:17:55.013Z,2.22
2018-08-06T15:20:23.417Z,1.90
2018-08-06T15:22:51.811Z,1.80
2018-08-06T15:25:21.940Z,1.95
2018-08-06T15:27:50.513Z,1.90
2018-08-06T15:30:19.319Z,1.85
2018-08-06T15:32:47.613Z,1.85
2018-08-06T15:35:15.925Z,1.57
2018-08-06T15:37:44.865Z,1.60
2018-08-06T15:40:15.433Z,1.70
2018-08-06T15:42:43.966Z,1.90
2018-08-06T15:45:12.880Z,2.37
2018-08-06T15:47:41.937Z,2.15
2018-08-06T15:50:13.228Z,3.30
2018-08-06T15:52:41.578Z,1.90
2018-08-06T15:55:09.925Z,1.50
2018-08-06T15:57:38.449Z,2.25
2018-08-06T16:00:09.495Z,1.90
2018-08-06T16:02:37.776Z,2.00
2018-08-06T16:05:07.160Z,2.12
2018-08-06T16:07:35.513Z,1.90
2018-08-06T16:10:03.873Z,4.25
2018-08-06T16:12:32.298Z,2.22
2018-08-06T16:15:00.744Z,2.10
2018-08-06T16:17:29.028Z,2.20
2018-08-06T16:19:57.384Z,1.57
2018-08-06T16:22:25.768Z,2.08
2018-08-06T16:24:54.291Z,2.45
2018-08-06T16:27:22.556Z,2.40
2018-08-06T16:29:50.892Z,6.30
2018-08-06T16:32:19.217Z,10.60
2018-08-06T16:34:47.480Z,3.70
2018-08-06T16:37:15.941Z,2.40
2018-08-06T16:39:44.316Z,3.80
2018-08-06T16:42:12.809Z,2.72
2018-08-06T16:44:41.424Z,3.58
2018-08-06T16:47:09.707Z,3.70
2018-08-06T16:49:37.937Z,3.10
2018-08-06T16:52:06.457Z,3.95
2018-08-06T16:54:34.833Z,6.33
2018-08-06T16:57:03.197Z,2.90
2018-08-06T16:59:31.588Z,8.68
2018-08-06T17:01:59.921Z,3.70
2018-08-06T17:04:28.239Z,2.62
2018-08-06T17:06:56.650Z,2.40
2018-08-06T17:09:25.005Z,2.85
2018-08-06T17:11:53.449Z,2.67
2018-08-06T17:14:21.928Z,4.35
2018-08-06T17:16:50.256Z,3.00
2018-08-06T17:19:18.592Z,4.70
2018-08-06T17:21:46.924Z,5.15
2018-08-06T17:24:15.189Z,2.98
2018-08-06T17:26:43.462Z,5.53
2018-08-06T17:29:11.917Z,2.92
2018-08-06T17:31:40.218Z,6.58
2018-08-06T17:34:08.752Z,2.05
2018-08-06T17:36:37.024Z,2.05
2018-08-06T17:39:08.691Z,2.52
2018-08-06T17:41:37.068Z,1.87
2018-08-06T17:44:05.357Z,1.65
2018-08-06T17:46:33.714Z,1.85
2018-08-06T17:49:02.297Z,2.65
2018-08-06T17:51:30.609Z,2.85
2018-08-06T17:53:58.978Z,2.42
2018-08-06T17:56:27.442Z,2.25
2018-08-06T17:58:55.709Z,2.70
2018-08-06T18:01:23.973Z,2.60
2018-08-06T18:03:52.308Z,2.80
2018-08-06T18:06:20.620Z,3.80
2018-08-06T18:08:49.095Z,3.02
2018-08-06T18:11:17.335Z,3.20
2018-08-06T18:13:45.631Z,2.37
2018-08-06T18:16:14.073Z,2.17
2018-08-06T18:18:42.344Z,2.55
2018-08-06T18:21:10.627Z,2.30
2018-08-06T18:23:38.978Z,2.52
2018-08-06T18:26:07.312Z,2.60
2018-08-06T18:28:35.582Z,2.37
2018-08-06T18:31:03.933Z,6.12
2018-08-06T18:33:32.304Z,4.07
2018-08-06T18:36:00.589Z,4.65
2018-08-06T18:38:28.909Z,4.23
2018-08-06T18:40:57.181Z,6.57
2018-08-06T18:43:25.440Z,8.33
2018-08-06T18:45:53.817Z,4.50
2018-08-06T18:48:22.073Z,4.10
2018-08-06T18:50:50.392Z,3.60
2018-08-06T18:53:18.753Z,3.60
2018-08-06T18:55:47.062Z,3.50
2018-08-06T18:58:15.341Z,3.20
2018-08-06T19:00:44.505Z,3.00
2018-08-06T19:03:12.921Z,3.60
2018-08-06T19:05:41.229Z,3.30
2018-08-06T19:08:09.542Z,4.20
2018-08-06T19:10:37.882Z,4.20
2018-08-06T19:13:11.561Z,4.60
2018-08-06T19:15:39.842Z,4.50
2018-08-06T19:18:13.476Z,3.57
2018-08-06T19:20:41.803Z,3.67
2018-08-06T19:23:10.125Z,3.83
2018-08-06T19:25:38.454Z,3.80
2018-08-06T19:28:06.779Z,3.20
2018-08-06T19:30:40.342Z,3.43
2018-08-06T19:33:08.632Z,2.90
2018-08-06T19:35:36.965Z,2.50
2018-08-06T19:38:04.949Z,2.50
2018-08-06T19:40:33.257Z,2.40
2018-08-06T19:43:07.079Z,2.43
2018-08-06T19:45:35.529Z,2.83
2018-08-06T19:48:03.915Z,2.70
2018-08-06T19:50:46.721Z,2.77
2018-08-06T19:53:15.010Z,2.70
2018-08-06T19:55:48.558Z,3.43
2018-08-06T19:58:16.867Z,3.30
2018-08-06T20:00:45.125Z,2.80
2018-08-06T20:03:13.544Z,3.10
2018-08-06T20:05:41.809Z,3.00
2018-08-06T20:08:10.149Z,3.13
2018-08-06T20:10:38.679Z,2.80
2018-08-06T20:13:06.985Z,2.43
2018-08-06T20:15:35.336Z,2.30
2018-08-06T20:18:03.654Z,3.03
2018-08-06T20:20:31.980Z,2.53
2018-08-06T20:23:00.398Z,2.83
2018-08-06T20:25:28.712Z,2.90
2018-08-06T20:27:56.973Z,2.60
2018-08-06T20:30:25.283Z,2.60
2018-08-06T20:32:53.645Z,2.70
2018-08-06T20:35:22.002Z,2.60
2018-08-06T20:37:50.234Z,2.60
2018-08-06T20:40:18.541Z,2.70
2018-08-06T20:42:46.894Z,3.03
2018-08-06T20:45:16.944Z,2.70
2018-08-06T20:47:45.165Z,2.60
2018-08-06T20:50:15.343Z,2.60
2018-08-06T20:52:43.954Z,2.60
2018-08-06T20:55:12.553Z,3.10
2018-08-06T20:57:41.245Z,2.30
2018-08-06T21:00:16.660Z,2.27
2018-08-06T21:02:45.462Z,3.00
2018-08-06T21:05:13.661Z,2.40
2018-08-06T21:07:42.102Z,2.57
2018-08-06T21:10:12.188Z,2.40
2018-08-06T21:12:40.552Z,2.20
2018-08-06T21:15:09.857Z,2.60
2018-08-06T21:17:38.377Z,2.73
2018-08-06T21:20:08.834Z,2.93
2018-08-06T21:22:37.145Z,2.57
2018-08-06T21:25:06.429Z,2.90
2018-08-06T21:27:34.749Z,2.77
2018-08-06T21:30:03.119Z,2.80
2018-08-06T21:32:31.433Z,2.80
2018-08-06T21:34:59.764Z,2.63
2018-08-06T21:37:28.076Z,3.00
2018-08-06T21:39:56.351Z,2.90
2018-08-06T21:42:24.653Z,2.70
2018-08-06T21:44:53.414Z,2.60
2018-08-06T21:47:21.857Z,2.90
2018-08-06T21:49:50.108Z,2.63
2018-08-06T21:52:18.427Z,2.30
2018-08-06T21:54:46.772Z,2.40
2018-08-06T21:57:15.065Z,2.70
2018-08-06T21:59:43.371Z,2.70
2018-08-06T22:02:11.697Z,2.80
2018-08-06T22:04:39.960Z,2.80
2018-08-06T22:07:08.240Z,2.47
2018-08-06T22:09:36.553Z,2.47
2018-08-06T22:12:04.796Z,2.60
2018-08-06T22:14:33.193Z,2.70
2018-08-06T22:17:01.486Z,2.50
2018-08-06T22:19:29.818Z,2.60
2018-08-06T22:21:58.065Z,2.40
2018-08-06T22:24:26.348Z,2.40
2018-08-06T22:26:54.696Z,2.33
2018-08-06T22:29:23.010Z,2.73
2018-08-06T22:31:51.297Z,2.90
2018-08-06T22:34:19.630Z,2.70
2018-08-06T22:36:47.883Z,2.70
2018-08-06T22:39:16.233Z,2.67
2018-08-06T22:41:44.524Z,2.80
2018-08-06T22:44:12.832Z,2.40
2018-08-06T22:46:41.138Z,2.83
2018-08-06T22:49:09.404Z,2.27
2018-08-06T22:51:44.492Z,2.63
2018-08-06T22:54:12.784Z,2.73
2018-08-06T22:56:41.093Z,2.30
2018-08-06T22:59:09.389Z,2.80
2018-08-06T23:01:37.685Z,2.40
2018-08-06T23:04:06.049Z,2.40
2018-08-06T23:06:34.404Z,2.70
2018-08-06T23:09:02.752Z,2.40
2018-08-06T23:11:31.018Z,2.67
2018-08-06T23:13:59.290Z,2.60
2018-08-06T23:16:27.594Z,2.43
2018-08-06T23:18:55.848Z,2.87
2018-08-06T23:21:24.147Z,2.70
2018-08-06T23:23:52.458Z,2.50
2018-08-06T23:26:20.706Z,2.77
2018-08-06T23:28:48.929Z,2.63
2018-08-06T23:31:17.233Z,2.60
2018-08-06T23:33:45.500Z,2.40
2018-08-06T23:36:13.759Z,2.80
2018-08-06T23:38:42.064Z,2.57
2018-08-06T23:41:10.351Z,2.83
2018-08-06T23:43:38.707Z,3.03
2018-08-06T23:46:06.992Z,2.80
2018-08-06T23:48:35.261Z,2.57
2018-08-06T23:51:03.566Z,2.83
2018-08-06T23:53:31.845Z,2.60
2018-08-06T23:55:59.803Z,3.00
2018-08-06T23:58:28.112Z,3.00
